Time;durP1;ratioP1;P1;durP2;ratioP2;P2;SDS_P1;SDS_P2;PMS_P1;PMS_P2;Temp;Humidity;BMP_temperature;BMP_pressure;BME280_temperature;BME280_humidity;BME280_pressure;Samples;Min_cycle;Max_cycle;Signal;HPM_P1;HPM_P2
2021/11/23 00:01:45;;;;;;;7.95;5.95;;;4.90;99.90;;;;;;5049739;28;20221;-78
2021/11/23 00:04:15;;;;;;;6.72;5.78;;;4.80;99.90;;;;;;5048427;28;20643;-78
2021/11/23 00:06:51;;;;;;;9.20;6.45;;;4.70;99.90;;;;;;5047956;28;20217;-77
2021/11/23 00:09:22;;;;;;;7.20;5.88;;;4.60;99.90;;;;;;5045549;28;20209;-78
2021/11/23 00:11:49;;;;;;;9.60;7.20;;;4.70;99.90;;;;;;5047298;28;20183;-78
2021/11/23 00:14:18;;;;;;;10.10;6.85;;;4.60;99.90;;;;;;5047619;28;20210;-78
2021/11/23 00:16:45;;;;;;;8.57;6.40;;;4.60;99.90;;;;;;5049837;28;20192;-77
2021/11/23 00:19:12;;;;;;;9.40;6.50;;;4.50;99.90;;;;;;5047867;28;20213;-78
2021/11/23 00:21:40;;;;;;;8.75;6.07;;;4.40;99.90;;;;;;5045149;28;20231;-78
2021/11/23 00:24:12;;;;;;;7.45;5.93;;;4.50;99.90;;;;;;5046627;28;20206;-78
2021/11/23 00:26:44;;;;;;;13.93;9.00;;;4.20;99.90;;;;;;5047046;28;20222;-78
2021/11/23 00:29:10;;;;;;;10.02;6.68;;;4.30;99.90;;;;;;5046540;28;20195;-77
2021/11/23 00:31:45;;;;;;;8.95;7.15;;;4.40;99.90;;;;;;5045458;28;20203;-78
2021/11/23 00:34:12;;;;;;;8.50;7.05;;;4.30;99.90;;;;;;5046925;28;20187;-78
2021/11/23 00:36:38;;;;;;;8.85;6.57;;;4.40;99.90;;;;;;5045080;28;20211;-78
2021/11/23 00:39:15;;;;;;;9.45;7.32;;;4.40;99.90;;;;;;5045807;28;20203;-78
2021/11/23 00:41:50;;;;;;;8.73;6.60;;;4.40;99.90;;;;;;5051961;28;20241;-77
2021/11/23 00:44:26;;;;;;;15.30;7.03;;;4.60;99.90;;;;;;5049259;28;20194;-77
2021/11/23 00:46:53;;;;;;;9.88;6.07;;;4.40;99.90;;;;;;5043709;28;20191;-76
2021/11/23 00:49:20;;;;;;;9.38;6.57;;;4.40;99.90;;;;;;5041943;28;20206;-77
2021/11/23 00:51:50;;;;;;;10.07;7.57;;;4.40;99.90;;;;;;5046866;28;20222;-77
2021/11/23 00:54:20;;;;;;;8.38;6.53;;;4.30;99.90;;;;;;5044040;28;20619;-77
2021/11/23 00:56:56;;;;;;;8.93;7.22;;;4.40;99.90;;;;;;5042899;28;20599;-77
2021/11/23 00:59:25;;;;;;;7.70;6.25;;;4.50;99.90;;;;;;5047051;28;20222;-77
2021/11/23 01:01:54;;;;;;;9.45;6.22;;;4.40;99.90;;;;;;5044106;28;20770;-77
2021/11/23 01:04:21;;;;;;;9.55;6.65;;;4.40;99.90;;;;;;5044019;28;20214;-76
2021/11/23 01:06:52;;;;;;;8.48;6.05;;;4.30;99.90;;;;;;5045859;28;20211;-79
2021/11/23 01:09:19;;;;;;;10.60;6.63;;;4.30;99.90;;;;;;5042975;28;20270;-78
2021/11/23 01:11:51;;;;;;;10.93;6.80;;;4.30;99.90;;;;;;5045934;28;20649;-77
2021/11/23 01:14:23;;;;;;;9.35;7.25;;;4.00;99.90;;;;;;5044371;28;20206;-77
2021/11/23 01:16:52;;;;;;;11.32;6.97;;;4.10;99.90;;;;;;5041818;28;20195;-77
2021/11/23 01:19:19;;;;;;;9.18;6.60;;;4.10;99.90;;;;;;5043365;28;20202;-77
2021/11/23 01:21:48;;;;;;;9.57;7.13;;;4.00;99.90;;;;;;5043076;28;20310;-77
2021/11/23 01:24:21;;;;;;;8.65;6.85;;;4.10;99.90;;;;;;5044681;28;20206;-77
2021/11/23 01:26:54;;;;;;;9.02;7.03;;;3.80;99.90;;;;;;5043196;28;20211;-77
2021/11/23 01:29:20;;;;;;;8.02;6.05;;;4.00;99.90;;;;;;5039708;28;20242;-77
2021/11/23 01:31:47;;;;;;;11.55;6.60;;;3.70;99.90;;;;;;5042698;28;20203;-78
2021/11/23 01:34:16;;;;;;;9.65;7.00;;;3.70;99.90;;;;;;5042833;28;20206;-77
2021/11/23 01:36:45;;;;;;;9.63;7.40;;;3.80;99.90;;;;;;5044109;28;20310;-77
2021/11/23 01:39:19;;;;;;;11.00;7.55;;;3.90;99.90;;;;;;5048971;28;20207;-78
2021/11/23 01:41:46;;;;;;;10.85;7.55;;;3.80;99.90;;;;;;5045465;28;20302;-78
2021/11/23 01:44:20;;;;;;;10.95;5.85;;;3.70;99.90;;;;;;5042298;28;20213;-77
2021/11/23 01:46:50;;;;;;;13.13;6.53;;;4.00;99.90;;;;;;5044185;28;20376;-76
2021/11/23 01:49:17;;;;;;;9.52;7.30;;;4.20;99.90;;;;;;5040484;28;20225;-76
2021/11/23 01:51:44;;;;;;;8.70;6.32;;;4.00;99.90;;;;;;5043041;28;20643;-78
2021/11/23 01:54:12;;;;;;;10.45;7.32;;;4.00;99.90;;;;;;5042729;28;20211;-78
2021/11/23 01:56:39;;;;;;;7.70;6.00;;;3.80;99.90;;;;;;5043288;28;20210;-78
2021/11/23 01:59:10;;;;;;;7.45;4.95;;;4.10;99.90;;;;;;5046520;28;20298;-77
2021/11/23 02:01:40;;;;;;;8.50;6.40;;;4.20;99.90;;;;;;5043374;28;20191;-77
2021/11/23 02:04:14;;;;;;;8.10;4.65;;;4.00;99.90;;;;;;5042807;28;20195;-77
2021/11/23 02:06:43;;;;;;;8.18;6.07;;;4.10;99.90;;;;;;5041905;28;20294;-77
2021/11/23 02:09:12;;;;;;;7.45;5.70;;;4.00;99.90;;;;;;5040208;28;20206;-76
2021/11/23 02:11:41;;;;;;;8.55;6.00;;;4.00;99.90;;;;;;5041939;28;20203;-77
2021/11/23 02:14:11;;;;;;;9.80;6.50;;;4.10;99.90;;;;;;5042442;28;20214;-78
2021/11/23 02:16:39;;;;;;;8.05;5.95;;;3.80;99.90;;;;;;5042023;28;20207;-77
2021/11/23 02:19:09;;;;;;;12.80;7.60;;;3.90;99.90;;;;;;5041326;28;20261;-78
2021/11/23 02:21:42;;;;;;;9.55;6.80;;;4.30;99.90;;;;;;5041030;28;20260;-76
2021/11/23 02:24:10;;;;;;;6.18;5.10;;;4.10;99.90;;;;;;5041415;28;20191;-76
2021/11/23 02:26:37;;;;;;;8.63;5.50;;;3.90;99.90;;;;;;5040373;28;20211;-76
2021/11/23 02:29:04;;;;;;;8.30;6.38;;;3.80;99.90;;;;;;5039569;28;20210;-77
2021/11/23 02:31:31;;;;;;;8.35;6.80;;;3.50;99.90;;;;;;5042733;28;20211;-76
2021/11/23 02:34:03;;;;;;;9.68;7.25;;;3.70;99.90;;;;;;5040007;28;20229;-77
2021/11/23 02:36:31;;;;;;;9.55;6.57;;;3.80;99.90;;;;;;5038890;28;20199;-77
2021/11/23 02:39:00;;;;;;;8.75;6.47;;;3.60;99.90;;;;;;5040600;28;20213;-77
2021/11/23 02:41:27;;;;;;;9.85;7.47;;;3.80;99.90;;;;;;5039943;28;20206;-77
2021/11/23 02:44:01;;;;;;;11.15;7.20;;;3.60;99.90;;;;;;5039518;28;20241;-77
2021/11/23 02:46:28;;;;;;;11.65;8.20;;;3.30;99.90;;;;;;5039594;28;20242;-77
2021/11/23 02:48:57;;;;;;;12.38;7.78;;;3.30;99.90;;;;;;5038162;28;20215;-77
2021/11/23 02:51:33;;;;;;;9.52;7.13;;;3.50;99.90;;;;;;5039971;28;20238;-78
2021/11/23 02:54:05;;;;;;;11.55;8.20;;;3.40;99.90;;;;;;5040814;28;20253;-77
2021/11/23 02:56:35;;;;;;;10.10;7.68;;;3.30;99.90;;;;;;5042077;28;20201;-76
2021/11/23 02:59:05;;;;;;;13.30;8.63;;;3.40;99.90;;;;;;5042025;28;20187;-77
2021/11/23 03:01:37;;;;;;;11.05;7.25;;;3.20;99.90;;;;;;5040212;28;20221;-77
2021/11/23 03:04:04;;;;;;;12.32;7.20;;;3.30;99.90;;;;;;5041994;28;20221;-76
2021/11/23 03:06:33;;;;;;;10.75;7.28;;;3.80;99.90;;;;;;5042553;28;20274;-78
2021/11/23 03:09:01;;;;;;;11.02;6.75;;;3.70;99.90;;;;;;5046341;28;20237;-78
2021/11/23 03:11:33;;;;;;;9.57;6.90;;;3.90;99.90;;;;;;5046901;28;20213;-78
2021/11/23 03:14:07;;;;;;;10.82;6.72;;;4.00;99.90;;;;;;5046557;28;20194;-77
2021/11/23 03:16:36;;;;;;;9.80;5.85;;;3.90;99.90;;;;;;5042339;28;20225;-78
2021/11/23 03:19:05;;;;;;;14.07;7.10;;;3.80;99.90;;;;;;5037644;28;20697;-76
2021/11/23 03:21:36;;;;;;;11.48;7.22;;;3.80;99.90;;;;;;5041543;28;20207;-76
2021/11/23 03:24:14;;;;;;;9.13;6.32;;;3.70;99.90;;;;;;5043420;28;20211;-76
2021/11/23 03:26:45;;;;;;;10.57;6.45;;;3.40;99.90;;;;;;5045660;28;20229;-76
2021/11/23 03:29:22;;;;;;;8.85;6.07;;;3.60;99.90;;;;;;5045310;28;20191;-76
2021/11/23 03:31:49;;;;;;;9.68;6.50;;;3.40;99.90;;;;;;5045621;28;20671;-77
2021/11/23 03:34:16;;;;;;;10.85;6.57;;;3.60;99.90;;;;;;5044351;28;20215;-76
2021/11/23 03:36:46;;;;;;;9.40;6.10;;;3.30;99.90;;;;;;5043138;28;20217;-76
2021/11/23 03:39:19;;;;;;;10.52;6.40;;;3.30;99.90;;;;;;5045213;28;20523;-76
2021/11/23 03:41:46;;;;;;;13.02;7.45;;;3.30;99.90;;;;;;5045109;28;20202;-76
2021/11/23 03:44:15;;;;;;;10.18;7.28;;;3.60;99.90;;;;;;5045220;28;20301;-76
2021/11/23 03:46:42;;;;;;;8.80;7.20;;;3.70;99.90;;;;;;5044949;28;20202;-76
2021/11/23 03:49:09;;;;;;;10.50;8.00;;;3.50;99.90;;;;;;5043035;28;20213;-77
2021/11/23 03:51:36;;;;;;;10.68;7.35;;;3.30;99.90;;;;;;5044104;28;20293;-77
2021/11/23 03:54:02;;;;;;;11.75;7.88;;;3.20;99.90;;;;;;5042784;28;20206;-77
2021/11/23 03:56:31;;;;;;;9.85;7.75;;;3.20;99.90;;;;;;5042855;28;20297;-77
2021/11/23 03:58:59;;;;;;;12.27;7.68;;;3.50;99.90;;;;;;5043394;28;20217;-77
2021/11/23 04:01:26;;;;;;;12.52;7.32;;;3.20;99.90;;;;;;5043427;28;20309;-77
2021/11/23 04:03:53;;;;;;;11.93;8.77;;;3.10;99.90;;;;;;5042501;28;20233;-77
2021/11/23 04:06:23;;;;;;;11.82;7.80;;;3.00;99.90;;;;;;5041946;28;20207;-77
2021/11/23 04:08:50;;;;;;;10.15;7.90;;;2.90;99.90;;;;;;5043011;28;20215;-77
2021/11/23 04:11:17;;;;;;;10.27;7.80;;;3.00;99.90;;;;;;5041683;28;20234;-77
2021/11/23 04:13:48;;;;;;;12.20;8.73;;;3.20;99.90;;;;;;5042327;28;20312;-76
2021/11/23 04:16:23;;;;;;;9.90;7.13;;;2.90;99.90;;;;;;5041759;28;20195;-76
2021/11/23 04:18:55;;;;;;;10.02;7.60;;;3.00;99.90;;;;;;5028951;28;20211;-76
2021/11/23 04:21:22;;;;;;;11.57;7.55;;;3.00;99.90;;;;;;5044729;28;20276;-76
2021/11/23 04:23:52;;;;;;;11.23;7.32;;;3.00;99.90;;;;;;5043296;28;20227;-76
2021/11/23 04:26:21;;;;;;;13.40;8.63;;;2.90;99.90;;;;;;5045237;28;20286;-76
2021/11/23 04:28:51;;;;;;;12.32;7.57;;;2.80;99.90;;;;;;5044654;28;20206;-77
2021/11/23 04:31:18;;;;;;;10.63;7.75;;;2.90;99.90;;;;;;5046017;28;20238;-76
2021/11/23 04:33:45;;;;;;;11.00;7.95;;;2.90;99.90;;;;;;5045735;28;20221;-76
2021/11/23 04:36:11;;;;;;;10.93;8.20;;;3.00;99.90;;;;;;5043717;28;20210;-76
2021/11/23 04:38:39;;;;;;;13.32;7.50;;;3.10;99.90;;;;;;5043089;28;20210;-76
2021/11/23 04:41:14;;;;;;;10.73;7.65;;;3.00;99.90;;;;;;5042747;28;20230;-76
2021/11/23 04:43:40;;;;;;;9.10;7.55;;;2.90;99.90;;;;;;5043676;28;20206;-76
2021/11/23 04:46:09;;;;;;;10.68;7.70;;;2.90;99.90;;;;;;5044512;28;20206;-78
2021/11/23 04:48:35;;;;;;;11.13;7.93;;;2.80;99.90;;;;;;5043378;28;20206;-76
2021/11/23 04:51:02;;;;;;;11.75;8.40;;;2.70;99.90;;;;;;5046258;28;20227;-78
2021/11/23 04:53:33;;;;;;;13.15;8.68;;;2.80;99.90;;;;;;5044206;28;20206;-78
2021/11/23 04:56:05;;;;;;;16.10;7.95;;;2.90;99.90;;;;;;5045546;28;20199;-77
2021/11/23 04:58:34;;;;;;;12.32;7.95;;;2.90;99.90;;;;;;5047562;28;20214;-78
2021/11/23 05:01:01;;;;;;;11.68;9.15;;;2.80;99.90;;;;;;5078238;22;20237;-77
2021/11/23 05:03:29;;;;;;;12.32;8.70;;;2.90;99.90;;;;;;5076699;28;20221;-78
2021/11/23 05:05:58;;;;;;;12.30;8.32;;;2.70;99.90;;;;;;5076498;28;20202;-77
2021/11/23 05:08:25;;;;;;;15.18;8.85;;;2.60;99.90;;;;;;5080609;28;20212;-78
2021/11/23 05:10:52;;;;;;;12.55;8.98;;;2.60;99.90;;;;;;5081541;28;20222;-78
2021/11/23 05:13:19;;;;;;;13.25;8.20;;;3.10;99.90;;;;;;5076982;28;20197;-78
2021/11/23 05:15:46;;;;;;;12.20;9.70;;;2.90;99.90;;;;;;5076292;28;20233;-78
2021/11/23 05:18:13;;;;;;;14.23;9.73;;;2.80;99.90;;;;;;5076007;28;20566;-78
2021/11/23 05:20:41;;;;;;;12.57;9.80;;;2.70;99.90;;;;;;5075946;28;20287;-78
2021/11/23 05:23:08;;;;;;;13.18;9.25;;;2.90;99.90;;;;;;5075797;28;20725;-79
2021/11/23 05:25:35;;;;;;;13.82;9.20;;;2.60;99.90;;;;;;5077938;28;20220;-78
2021/11/23 05:28:01;;;;;;;13.38;8.82;;;2.50;99.90;;;;;;5077751;28;20210;-79
2021/11/23 05:30:28;;;;;;;13.70;9.05;;;2.60;99.90;;;;;;5077953;28;20225;-79
2021/11/23 05:32:55;;;;;;;14.73;9.98;;;2.60;99.90;;;;;;5079292;28;20208;-79
2021/11/23 05:35:22;;;;;;;13.38;9.32;;;2.60;99.90;;;;;;5077499;28;20698;-79
2021/11/23 05:37:50;;;;;;;12.70;9.13;;;2.60;99.90;;;;;;5077877;28;20213;-78
2021/11/23 05:40:17;;;;;;;14.98;10.10;;;2.70;99.90;;;;;;5076636;28;20213;-78
2021/11/23 05:42:43;;;;;;;13.65;9.27;;;2.50;99.90;;;;;;5077711;28;20703;-78
2021/11/23 05:45:12;;;;;;;13.77;10.55;;;2.60;99.90;;;;;;5076741;28;20205;-78
2021/11/23 05:47:39;;;;;;;12.20;9.18;;;2.70;99.90;;;;;;5077898;28;20584;-78
2021/11/23 05:50:06;;;;;;;14.25;9.40;;;2.40;99.90;;;;;;5075743;28;20209;-79
2021/11/23 05:52:33;;;;;;;13.23;9.32;;;2.60;99.90;;;;;;5075836;28;20217;-78
2021/11/23 05:55:02;;;;;;;13.38;10.00;;;2.70;99.90;;;;;;5076157;28;20548;-79
2021/11/23 05:57:29;;;;;;;13.40;9.07;;;2.60;99.90;;;;;;5077196;28;20202;-79
2021/11/23 05:59:56;;;;;;;15.65;10.95;;;2.50;99.90;;;;;;5081520;28;20205;-79
2021/11/23 06:02:22;;;;;;;13.70;10.77;;;2.60;99.90;;;;;;5077320;28;20229;-77
2021/11/23 06:04:49;;;;;;;16.73;10.80;;;2.60;99.90;;;;;;5076456;28;20225;-80
2021/11/23 06:07:16;;;;;;;14.27;9.60;;;2.60;99.90;;;;;;5078507;28;20209;-79
2021/11/23 06:09:43;;;;;;;13.10;8.20;;;2.70;99.90;;;;;;5077931;28;20219;-80
2021/11/23 06:12:11;;;;;;;13.65;10.23;;;2.80;99.90;;;;;;5079458;28;20230;-81
2021/11/23 06:14:39;;;;;;;16.77;9.05;;;2.70;99.90;;;;;;5079329;28;20630;-79
2021/11/23 06:17:07;;;;;;;13.93;9.52;;;2.40;99.90;;;;;;5083250;28;20608;-80
2021/11/23 06:19:37;;;;;;;13.93;10.98;;;2.30;99.90;;;;;;5079973;28;20282;-80
2021/11/23 06:22:04;;;;;;;13.65;9.00;;;2.40;99.90;;;;;;5080800;28;20225;-79
2021/11/23 06:24:31;;;;;;;12.48;8.80;;;2.50;99.90;;;;;;5079135;28;20217;-79
2021/11/23 06:27:01;;;;;;;15.45;10.95;;;2.70;99.90;;;;;;5077678;28;20550;-78
2021/11/23 06:29:29;;;;;;;14.88;9.30;;;2.60;99.90;;;;;;5078508;28;20292;-79
2021/11/23 06:31:58;;;;;;;14.70;10.13;;;2.70;99.90;;;;;;5078070;28;20232;-80
2021/11/23 06:34:25;;;;;;;18.38;9.25;;;2.70;99.90;;;;;;5078593;28;20205;-79
2021/11/23 06:36:51;;;;;;;16.75;9.95;;;2.60;99.90;;;;;;5079706;28;20205;-79
2021/11/23 06:39:19;;;;;;;17.17;11.25;;;2.60;99.90;;;;;;5080098;28;20205;-79
2021/11/23 06:41:46;;;;;;;15.90;10.52;;;2.50;99.90;;;;;;5081264;28;20275;-78
2021/11/23 06:44:13;;;;;;;16.15;11.20;;;2.60;99.90;;;;;;5084868;28;20223;-79
2021/11/23 06:46:41;;;;;;;13.18;8.52;;;2.40;99.90;;;;;;5082729;28;20236;-79
2021/11/23 06:49:08;;;;;;;12.90;9.77;;;2.70;99.90;;;;;;5085862;28;20236;-79
2021/11/23 06:51:35;;;;;;;14.30;9.52;;;2.70;99.90;;;;;;5085696;28;20232;-79
2021/11/23 06:54:01;;;;;;;14.70;9.43;;;2.60;99.90;;;;;;5083794;28;20312;-80
2021/11/23 06:56:28;;;;;;;17.13;10.13;;;2.70;99.90;;;;;;5080635;28;20296;-79
2021/11/23 06:58:56;;;;;;;13.55;9.30;;;2.60;99.90;;;;;;5079444;28;20190;-79
2021/11/23 07:01:23;;;;;;;17.90;9.38;;;2.60;99.90;;;;;;5078995;28;20244;-78
2021/11/23 07:03:52;;;;;;;13.23;9.93;;;2.50;99.90;;;;;;5080263;28;20221;-79
2021/11/23 07:06:18;;;;;;;14.80;9.82;;;2.60;99.90;;;;;;5084307;28;20205;-79
2021/11/23 07:08:45;;;;;;;16.02;10.45;;;2.60;99.90;;;;;;5082664;28;20213;-79
2021/11/23 07:11:13;;;;;;;14.48;10.82;;;2.70;99.90;;;;;;5080374;28;20231;-79
2021/11/23 07:13:41;;;;;;;16.50;11.02;;;2.60;99.90;;;;;;5079511;28;20200;-79
2021/11/23 07:16:07;;;;;;;18.95;11.77;;;2.50;99.90;;;;;;5080133;28;20224;-77
2021/11/23 07:18:34;;;;;;;15.32;10.50;;;2.20;99.90;;;;;;5074252;28;20292;-77
2021/11/23 07:21:02;;;;;;;20.02;11.88;;;2.30;99.90;;;;;;5073601;28;20232;-81
2021/11/23 07:23:29;;;;;;;14.95;10.95;;;2.40;99.90;;;;;;5077457;28;20202;-79
2021/11/23 07:25:56;;;;;;;15.95;11.38;;;2.40;99.90;;;;;;5076270;28;20213;-80
2021/11/23 07:28:23;;;;;;;17.80;10.98;;;2.70;99.90;;;;;;5076450;28;20211;-79
2021/11/23 07:30:54;;;;;;;14.50;10.15;;;2.50;99.90;;;;;;5076827;28;20225;-79
2021/11/23 07:33:21;;;;;;;18.85;10.93;;;2.60;99.90;;;;;;5076473;28;20190;-79
2021/11/23 07:35:47;;;;;;;20.77;11.07;;;2.40;99.90;;;;;;5079968;28;20190;-83
2021/11/23 07:38:16;;;;;;;15.77;11.07;;;2.30;99.90;;;;;;5079726;28;20566;-78
2021/11/23 07:40:44;;;;;;;16.98;12.38;;;2.30;99.90;;;;;;5077211;28;20236;-78
2021/11/23 07:43:11;;;;;;;16.02;11.80;;;2.30;99.90;;;;;;5073913;28;20715;-78
2021/11/23 07:45:39;;;;;;;16.83;11.98;;;2.40;99.90;;;;;;5072116;28;20681;-77
2021/11/23 07:48:06;;;;;;;17.58;11.65;;;2.20;99.90;;;;;;5075106;28;20205;-79
2021/11/23 07:50:33;;;;;;;16.92;11.50;;;2.50;99.90;;;;;;5074207;28;20233;-78
2021/11/23 07:53:00;;;;;;;19.95;11.45;;;2.40;99.90;;;;;;5074591;28;20688;-79
2021/11/23 07:55:28;;;;;;;18.60;12.68;;;2.30;99.90;;;;;;5074514;28;20206;-79
2021/11/23 07:57:55;;;;;;;16.52;11.63;;;2.30;99.90;;;;;;5074257;28;20628;-79
2021/11/23 08:00:23;;;;;;;21.80;13.07;;;2.20;99.90;;;;;;5073565;28;20212;-82
2021/11/23 08:02:50;;;;;;;19.98;12.20;;;2.30;99.90;;;;;;5075607;28;20194;-78
2021/11/23 08:05:17;;;;;;;15.98;10.90;;;2.20;99.90;;;;;;5075362;28;20229;-79
2021/11/23 08:07:44;;;;;;;18.10;11.95;;;2.40;99.90;;;;;;5075788;28;20273;-79
2021/11/23 08:10:11;;;;;;;23.85;13.15;;;2.40;99.90;;;;;;5077493;28;20205;-78
2021/11/23 08:12:39;;;;;;;15.73;11.27;;;2.40;99.90;;;;;;5079568;28;20205;-79
2021/11/23 08:15:06;;;;;;;20.50;12.27;;;2.50;99.90;;;;;;5080118;28;20206;-79
2021/11/23 08:17:33;;;;;;;19.00;12.68;;;2.60;99.90;;;;;;5079499;28;20228;-79
2021/11/23 08:20:01;;;;;;;18.77;11.98;;;2.40;99.90;;;;;;5078612;28;20795;-77
2021/11/23 08:22:27;;;;;;;16.45;12.65;;;2.60;99.90;;;;;;5079919;28;20237;-78
2021/11/23 08:24:54;;;;;;;13.20;10.02;;;2.50;99.90;;;;;;5081366;28;20224;-78
2021/11/23 08:27:21;;;;;;;17.42;11.75;;;2.90;99.90;;;;;;5079760;28;20515;-79
2021/11/23 08:29:49;;;;;;;15.73;11.70;;;2.80;99.90;;;;;;5079419;28;20212;-79
2021/11/23 08:32:16;;;;;;;15.65;11.35;;;2.80;99.90;;;;;;5079818;28;20225;-78
2021/11/23 08:34:43;;;;;;;16.55;11.45;;;2.70;99.90;;;;;;5086555;28;20204;-78
2021/11/23 08:37:11;;;;;;;16.17;12.48;;;2.90;99.90;;;;;;5078982;28;20205;-77
2021/11/23 08:39:38;;;;;;;18.20;13.25;;;2.70;99.90;;;;;;5075674;28;20301;-77
2021/11/23 08:42:05;;;;;;;17.92;11.23;;;2.70;99.90;;;;;;5076123;28;20236;-80
2021/11/23 08:44:32;;;;;;;16.20;11.75;;;3.00;99.90;;;;;;5076869;28;20225;-77
2021/11/23 08:47:00;;;;;;;16.15;10.65;;;3.10;99.90;;;;;;5074917;28;20737;-75
2021/11/23 08:49:27;;;;;;;18.00;11.07;;;3.10;99.90;;;;;;5075461;28;20209;-76
2021/11/23 08:51:54;;;;;;;16.92;11.35;;;3.10;99.90;;;;;;5076105;28;20641;-77
2021/11/23 08:54:21;;;;;;;14.90;10.25;;;3.20;99.90;;;;;;5074933;28;20580;-77
2021/11/23 08:56:56;;;;;;;17.70;11.60;;;3.10;99.90;;;;;;5074353;28;20305;-77
2021/11/23 08:59:23;;;;;;;14.57;11.52;;;3.10;99.90;;;;;;5075820;28;20284;-77
2021/11/23 09:01:50;;;;;;;13.35;10.40;;;3.00;99.90;;;;;;5077693;28;20271;-78
2021/11/23 09:04:18;;;;;;;13.43;10.40;;;3.00;99.90;;;;;;5078695;28;20615;-78
2021/11/23 09:06:45;;;;;;;16.70;11.65;;;3.30;99.90;;;;;;5078935;28;20598;-77
2021/11/23 09:09:12;;;;;;;17.67;11.50;;;3.20;99.90;;;;;;5078321;28;20201;-77
2021/11/23 09:11:40;;;;;;;13.85;9.30;;;3.20;99.90;;;;;;5078423;28;20724;-78
2021/11/23 09:14:09;;;;;;;14.48;10.30;;;3.40;99.90;;;;;;5078628;28;20220;-79
2021/11/23 09:16:36;;;;;;;15.35;10.80;;;3.60;99.90;;;;;;5083478;28;20217;-81
2021/11/23 09:19:04;;;;;;;14.55;9.82;;;3.50;99.90;;;;;;5081650;28;20220;-81
2021/11/23 09:21:32;;;;;;;16.52;9.63;;;3.70;99.90;;;;;;5078685;28;20225;-78
2021/11/23 09:23:59;;;;;;;13.45;8.38;;;3.50;99.90;;;;;;5076308;28;20220;-77
2021/11/23 09:26:26;;;;;;;8.07;5.45;;;3.70;99.90;;;;;;5077354;28;20216;-78
2021/11/23 09:28:53;;;;;;;13.70;8.57;;;3.70;99.90;;;;;;5078343;28;20676;-78
2021/11/23 09:31:21;;;;;;;16.73;9.80;;;3.60;99.90;;;;;;5077927;28;20221;-80
2021/11/23 09:33:48;;;;;;;11.13;8.68;;;3.60;99.90;;;;;;5078165;28;20229;-80
2021/11/23 09:36:15;;;;;;;12.82;8.20;;;3.70;99.90;;;;;;5075787;28;20204;-78
2021/11/23 09:38:44;;;;;;;11.85;8.38;;;3.80;99.90;;;;;;5086103;28;20201;-80
2021/11/23 09:41:11;;;;;;;11.82;8.77;;;4.10;99.90;;;;;;5083350;28;20239;-80
2021/11/23 09:43:40;;;;;;;15.45;8.88;;;3.80;99.90;;;;;;5083644;28;20198;-79
2021/11/23 09:46:08;;;;;;;12.50;9.10;;;4.00;99.90;;;;;;5084878;28;20290;-79
2021/11/23 09:48:36;;;;;;;12.80;9.27;;;4.10;99.90;;;;;;5080820;28;20210;-80
2021/11/23 09:51:04;;;;;;;12.65;9.75;;;4.00;99.90;;;;;;5084010;28;20263;-79
2021/11/23 09:53:31;;;;;;;14.57;9.75;;;4.10;99.90;;;;;;5081936;28;20212;-80
2021/11/23 09:55:59;;;;;;;15.02;8.40;;;4.20;99.90;;;;;;5080742;28;20293;-79
2021/11/23 09:58:28;;;;;;;13.82;9.75;;;4.20;99.90;;;;;;5077972;28;20206;-78
2021/11/23 10:01:04;;;;;;;12.52;9.50;;;4.20;99.90;;;;;;5077246;28;20240;-78
2021/11/23 10:03:32;;;;;;;12.98;9.95;;;4.10;99.90;;;;;;5081514;28;20185;-77
2021/11/23 10:06:08;;;;;;;17.33;10.40;;;4.10;99.90;;;;;;5077900;28;20225;-78
2021/11/23 10:08:36;;;;;;;11.85;8.60;;;4.20;99.90;;;;;;5076889;28;20224;-78
2021/11/23 10:11:05;;;;;;;14.82;9.27;;;4.10;99.90;;;;;;5075089;28;20751;-77
2021/11/23 10:13:42;;;;;;;14.40;10.10;;;4.20;99.90;;;;;;5074386;28;20220;-77
2021/11/23 10:16:09;;;;;;;16.08;9.40;;;4.10;99.90;;;;;;5076375;28;20629;-78
2021/11/23 10:18:38;;;;;;;14.35;8.68;;;4.10;99.90;;;;;;5077059;28;20212;-77
2021/11/23 10:21:07;;;;;;;10.60;8.02;;;4.40;99.90;;;;;;5078228;28;20225;-78
2021/11/23 10:23:36;;;;;;;14.35;9.70;;;4.50;99.90;;;;;;5076350;28;20209;-78
2021/11/23 10:26:11;;;;;;;13.52;9.55;;;4.70;99.90;;;;;;5078798;28;20589;-78
2021/11/23 10:28:39;;;;;;;13.55;9.13;;;4.80;99.90;;;;;;5079686;28;20284;-78
2021/11/23 10:31:07;;;;;;;13.20;8.45;;;5.20;99.90;;;;;;5077574;28;20857;-78
2021/11/23 10:33:37;;;;;;;14.57;9.30;;;5.00;99.90;;;;;;5076502;28;20311;-78
2021/11/23 10:36:06;;;;;;;12.07;8.15;;;5.10;99.90;;;;;;5078692;28;20193;-78
2021/11/23 10:38:34;;;;;;;11.30;7.82;;;5.10;99.90;;;;;;5081383;28;20277;-78
2021/11/23 10:41:08;;;;;;;13.32;8.90;;;5.20;99.90;;;;;;5077805;28;20685;-77
2021/11/23 10:43:38;;;;;;;9.82;7.05;;;5.30;99.90;;;;;;5075815;28;20582;-77
2021/11/23 10:46:12;;;;;;;14.20;8.13;;;5.50;99.90;;;;;;5075565;28;20321;-77
2021/11/23 10:48:40;;;;;;;11.43;7.90;;;5.50;99.90;;;;;;5075864;28;20189;-78
2021/11/23 10:51:09;;;;;;;15.00;8.23;;;5.20;99.90;;;;;;5075752;28;20229;-77
2021/11/23 10:53:39;;;;;;;9.85;7.68;;;5.20;99.90;;;;;;5074957;28;20296;-76
2021/11/23 10:56:10;;;;;;;12.13;8.45;;;5.20;99.90;;;;;;5080395;28;20219;-79
2021/11/23 10:58:38;;;;;;;11.70;8.40;;;5.10;99.90;;;;;;5078554;28;20197;-77
2021/11/23 11:01:06;;;;;;;10.43;7.63;;;5.30;99.90;;;;;;5074261;28;20753;-78
2021/11/23 11:03:33;;;;;;;15.00;6.45;;;5.50;99.90;;;;;;5075619;28;20220;-78
2021/11/23 11:06:02;;;;;;;11.43;6.50;;;5.60;99.90;;;;;;5076272;28;20268;-78
2021/11/23 11:08:33;;;;;;;9.52;6.55;;;5.70;99.90;;;;;;5083512;28;20206;-77
2021/11/23 11:11:00;;;;;;;8.65;5.45;;;5.90;99.90;;;;;;5083356;28;20591;-78
2021/11/23 11:13:29;;;;;;;8.43;6.20;;;5.80;99.90;;;;;;5073721;28;20650;-79
2021/11/23 11:15:57;;;;;;;9.15;6.70;;;5.80;99.90;;;;;;5075318;28;20197;-77
2021/11/23 11:18:25;;;;;;;9.52;6.57;;;5.80;99.90;;;;;;5076111;28;20185;-78
2021/11/23 11:20:58;;;;;;;8.93;6.20;;;5.90;99.90;;;;;;5075592;28;20665;-78
2021/11/23 11:23:26;;;;;;;14.73;6.30;;;5.80;99.90;;;;;;5075457;28;20307;-78
2021/11/23 11:26:00;;;;;;;10.82;6.97;;;5.80;99.90;;;;;;5074781;28;20225;-78
2021/11/23 11:28:47;;;;;;;10.70;7.25;;;5.90;99.90;;;;;;5074503;28;20206;-76
2021/11/23 11:31:42;;;;;;;12.93;8.50;;;6.00;99.90;;;;;;5073742;28;20233;-76
2021/11/23 11:34:30;;;;;;;12.48;7.18;;;6.00;99.90;;;;;;5029590;28;20267;-81
2021/11/23 11:37:07;;;;;;;10.45;5.97;;;6.20;99.90;;;;;;5077400;28;20222;-79
2021/11/23 11:39:58;;;;;;;11.00;6.90;;;6.20;99.90;;;;;;5076986;28;20193;-79
2021/11/23 11:42:49;;;;;;;8.88;7.35;;;6.10;99.90;;;;;;5078164;28;20233;-80
2021/11/23 11:45:18;;;;;;;9.77;7.30;;;6.00;99.90;;;;;;5077877;28;20650;-77
2021/11/23 11:47:46;;;;;;;11.20;7.53;;;5.90;99.90;;;;;;5082278;28;20194;-77
2021/11/23 11:50:30;;;;;;;10.35;6.72;;;5.90;99.90;;;;;;5081232;28;20266;-78
2021/11/23 11:53:14;;;;;;;10.60;6.45;;;6.10;99.90;;;;;;5084400;28;20190;-79
2021/11/23 11:55:48;;;;;;;9.82;5.93;;;6.40;99.90;;;;;;5086263;28;20214;-79
2021/11/23 11:58:35;;;;;;;9.85;6.68;;;6.30;99.90;;;;;;5081813;28;20251;-76
2021/11/23 12:01:26;;;;;;;10.50;7.13;;;6.40;99.90;;;;;;5077629;28;20316;-77
2021/11/23 12:04:17;;;;;;;8.98;5.97;;;6.40;99.90;;;;;;5079278;28;20643;-77
2021/11/23 12:07:16;;;;;;;9.90;6.57;;;6.10;99.90;;;;;;5076402;28;20245;-75
2021/11/23 12:09:46;;;;;;;8.43;5.80;;;6.40;99.90;;;;;;4999254;28;20349;-77
2021/11/23 12:12:52;;;;;;;8.43;6.20;;;6.50;99.90;;;;;;5063250;28;20316;-78
2021/11/23 12:15:37;;;;;;;7.75;5.28;;;6.50;99.90;;;;;;5080720;28;20532;-80
2021/11/23 12:19:00;;;;;;;8.32;4.90;;;6.50;99.90;;;;;;5080774;28;20247;-78
2021/11/23 12:21:31;;;;;;;8.68;5.13;;;6.60;99.90;;;;;;5076651;28;20222;-78
2021/11/23 12:23:59;;;;;;;7.50;5.25;;;6.50;99.90;;;;;;5095737;22;20254;-78
2021/11/23 12:26:29;;;;;;;6.53;4.55;;;6.60;99.90;;;;;;5058194;28;20237;-82
2021/11/23 12:28:57;;;;;;;7.00;4.40;;;6.80;99.90;;;;;;5058545;28;20221;-78
2021/11/23 12:31:26;;;;;;;6.28;4.15;;;6.80;99.90;;;;;;5058924;28;20225;-78
2021/11/23 12:33:59;;;;;;;8.75;4.65;;;6.80;99.90;;;;;;5056044;28;20240;-77
2021/11/23 12:36:28;;;;;;;8.77;4.90;;;6.80;99.90;;;;;;5058661;28;20183;-79
2021/11/23 12:39:07;;;;;;;7.75;3.72;;;7.00;99.90;;;;;;5059939;28;20679;-81
2021/11/23 12:41:33;;;;;;;6.32;4.55;;;7.00;99.90;;;;;;5058796;28;20193;-79
2021/11/23 12:44:00;;;;;;;6.10;4.65;;;6.90;99.90;;;;;;5056639;28;20230;-77
2021/11/23 12:46:28;;;;;;;8.63;5.57;;;6.80;99.90;;;;;;5056676;28;20250;-78
2021/11/23 12:48:57;;;;;;;8.30;4.68;;;6.90;99.90;;;;;;5057425;28;20202;-78
2021/11/23 12:51:29;;;;;;;6.55;4.72;;;7.00;99.90;;;;;;5056829;28;20210;-78
2021/11/23 12:54:00;;;;;;;9.52;4.70;;;6.80;99.90;;;;;;5058364;28;20271;-78
2021/11/23 12:56:46;;;;;;;8.85;5.00;;;6.70;99.90;;;;;;5056687;28;20190;-78
2021/11/23 12:59:36;;;;;;;6.15;4.20;;;6.70;99.90;;;;;;5062764;28;20216;-78
2021/11/23 13:02:26;;;;;;;8.60;4.72;;;6.70;99.90;;;;;;5057542;28;20661;-78